createdAt,value
2019-01-16T00:02:05.332Z,6.25
2019-01-16T00:04:51.966Z,8.40
2019-01-16T00:07:38.614Z,5.80
2019-01-16T00:10:25.401Z,7.10
2019-01-16T00:13:12.024Z,7.20
2019-01-16T00:15:58.662Z,6.78
2019-01-16T00:18:45.314Z,7.65
2019-01-16T00:21:31.936Z,6.62
2019-01-16T00:24:18.559Z,6.55
2019-01-16T00:27:03.361Z,6.05
2019-01-16T00:29:50.001Z,7.72
2019-01-16T00:32:36.649Z,6.85
2019-01-16T00:35:23.867Z,7.65
2019-01-16T00:38:10.504Z,6.72
2019-01-16T00:40:57.140Z,7.03
2019-01-16T00:43:43.737Z,6.45
2019-01-16T00:46:30.402Z,6.33
2019-01-16T00:49:17.059Z,7.12
2019-01-16T00:52:03.697Z,7.90
2019-01-16T00:54:50.311Z,7.10
2019-01-16T00:57:35.353Z,8.03
2019-01-16T01:00:22.196Z,7.55
2019-01-16T01:03:08.870Z,6.47
2019-01-16T01:05:54.845Z,7.83
2019-01-16T01:08:41.458Z,7.70
2019-01-16T01:11:28.072Z,10.03
2019-01-16T01:14:14.706Z,7.65
2019-01-16T01:17:01.369Z,7.90
2019-01-16T01:19:47.985Z,7.03
2019-01-16T01:22:34.621Z,6.25
2019-01-16T01:25:21.308Z,6.90
2019-01-16T01:28:07.998Z,7.58
2019-01-16T01:30:54.598Z,8.20
2019-01-16T01:33:41.214Z,7.42
2019-01-16T01:36:27.888Z,7.37
2019-01-16T01:39:14.500Z,7.20
2019-01-16T01:42:01.177Z,7.90
2019-01-16T01:44:47.812Z,7.37
2019-01-16T01:47:34.523Z,6.70
2019-01-16T01:50:21.149Z,5.95
2019-01-16T01:53:07.776Z,6.62
2019-01-16T01:55:54.457Z,6.75
2019-01-16T01:58:41.049Z,8.05
2019-01-16T02:01:27.669Z,7.30
2019-01-16T02:04:14.330Z,6.62
2019-01-16T02:07:00.933Z,7.03
2019-01-16T02:09:47.569Z,7.22
2019-01-16T02:12:34.187Z,6.70
2019-01-16T02:15:20.831Z,6.90
2019-01-16T02:18:07.444Z,7.08
2019-01-16T02:20:54.094Z,6.92
2019-01-16T02:23:35.541Z,6.42
2019-01-16T02:26:22.180Z,7.00
2019-01-16T02:29:08.828Z,6.87
2019-01-16T02:31:55.452Z,6.87
2019-01-16T02:34:42.075Z,6.78
2019-01-16T02:37:17.046Z,8.08
2019-01-16T02:40:03.671Z,7.50
2019-01-16T02:42:50.285Z,7.03
2019-01-16T02:45:36.917Z,7.62
2019-01-16T02:48:23.557Z,7.35
2019-01-16T02:51:10.187Z,7.60
2019-01-16T02:53:46.913Z,7.58
2019-01-16T02:56:33.544Z,7.87
2019-01-16T02:59:29.377Z,7.28
2019-01-16T03:02:16.007Z,7.45
2019-01-16T03:05:02.634Z,7.03
2019-01-16T03:07:37.724Z,6.95
2019-01-16T03:10:24.617Z,7.35
2019-01-16T03:13:11.224Z,7.55
2019-01-16T03:15:57.896Z,7.30
2019-01-16T03:18:42.904Z,8.43
2019-01-16T03:21:29.560Z,7.45
2019-01-16T03:24:17.727Z,7.03
2019-01-16T03:27:10.940Z,8.03
2019-01-16T03:29:47.302Z,8.10
2019-01-16T03:32:33.937Z,7.87
2019-01-16T03:35:08.822Z,8.10
2019-01-16T03:37:55.460Z,7.65
2019-01-16T03:40:42.078Z,7.55
2019-01-16T03:43:28.717Z,7.35
2019-01-16T03:46:15.342Z,7.20
2019-01-16T03:49:01.994Z,7.75
2019-01-16T03:51:48.599Z,8.03
2019-01-16T03:54:35.251Z,8.35
2019-01-16T03:57:21.900Z,7.58
2019-01-16T04:00:08.939Z,8.58
2019-01-16T04:02:55.613Z,7.17
2019-01-16T04:05:33.804Z,6.97
2019-01-16T04:08:20.438Z,7.28
2019-01-16T04:10:59.168Z,8.53
2019-01-16T04:13:45.781Z,7.87
2019-01-16T04:16:32.412Z,7.85
2019-01-16T04:19:21.787Z,7.03
2019-01-16T04:22:14.237Z,8.00
2019-01-16T04:25:00.814Z,8.45
2019-01-16T04:27:47.458Z,8.30
2019-01-16T04:30:34.054Z,7.40
2019-01-16T04:33:20.709Z,8.50
2019-01-16T04:36:07.318Z,7.47
2019-01-16T04:38:53.981Z,8.55
2019-01-16T04:41:40.586Z,8.18
2019-01-16T04:44:27.281Z,9.33
2019-01-16T04:47:13.892Z,8.00
2019-01-16T04:50:00.530Z,8.60
2019-01-16T04:52:47.143Z,8.08
2019-01-16T04:55:26.300Z,8.65
2019-01-16T04:58:06.988Z,8.10
2019-01-16T05:00:53.626Z,8.75
2019-01-16T05:03:40.237Z,10.10
2019-01-16T05:06:24.445Z,9.20
2019-01-16T05:09:11.061Z,9.38
2019-01-16T05:11:57.691Z,7.53
2019-01-16T05:14:44.317Z,8.98
2019-01-16T05:17:31.033Z,9.23
2019-01-16T05:20:11.705Z,9.45
2019-01-16T05:22:58.347Z,9.90
2019-01-16T05:25:44.969Z,8.50
2019-01-16T05:28:31.612Z,9.85
2019-01-16T05:31:18.229Z,8.88
2019-01-16T05:34:04.886Z,8.93
2019-01-16T05:36:51.515Z,8.70
2019-01-16T05:39:38.175Z,9.15
2019-01-16T05:42:24.793Z,9.73
2019-01-16T05:45:11.446Z,9.63
2019-01-16T05:47:58.119Z,11.43
2019-01-16T05:50:44.821Z,9.68
2019-01-16T05:53:31.462Z,10.90
2019-01-16T05:56:18.106Z,8.88
2019-01-16T05:59:04.712Z,7.40
2019-01-16T06:01:51.365Z,7.42
2019-01-16T06:04:38.021Z,7.55
2019-01-16T06:07:24.726Z,6.95
2019-01-16T06:10:11.356Z,7.17
2019-01-16T06:12:58.039Z,7.22
2019-01-16T06:15:32.306Z,7.80
2019-01-16T06:18:18.936Z,8.03
2019-01-16T06:21:05.554Z,7.80
2019-01-16T06:23:52.204Z,8.60
2019-01-16T06:26:38.833Z,9.68
2019-01-16T06:29:25.495Z,10.85
2019-01-16T06:32:12.104Z,12.88
2019-01-16T06:34:58.746Z,10.15
2019-01-16T06:37:45.360Z,11.35
2019-01-16T06:40:32.089Z,8.90
2019-01-16T06:43:18.706Z,8.78
2019-01-16T06:46:05.334Z,9.73
2019-01-16T06:48:51.970Z,10.53
2019-01-16T06:51:38.590Z,9.45
2019-01-16T06:54:25.214Z,10.03
2019-01-16T06:57:11.836Z,13.98
2019-01-16T06:59:58.453Z,15.28
2019-01-16T07:02:45.081Z,13.78
2019-01-16T07:05:31.697Z,13.45
2019-01-16T07:08:18.338Z,13.48
2019-01-16T07:11:04.970Z,18.40
2019-01-16T07:13:51.602Z,13.40
2019-01-16T07:16:38.233Z,14.33
2019-01-16T07:19:24.860Z,12.85
2019-01-16T07:22:11.494Z,14.07
2019-01-16T07:24:58.159Z,11.60
2019-01-16T07:27:44.797Z,13.43
2019-01-16T07:33:25.496Z,17.87
2019-01-16T07:36:12.136Z,18.10
2019-01-16T07:38:49.922Z,15.15
2019-01-16T07:41:36.601Z,14.78
2019-01-16T07:44:23.577Z,14.43
2019-01-16T07:47:10.255Z,13.65
2019-01-16T07:49:56.921Z,16.70
2019-01-16T07:52:43.583Z,14.55
2019-01-16T07:55:30.195Z,15.48
2019-01-16T07:58:16.866Z,16.75
2019-01-16T08:01:03.503Z,15.43
2019-01-16T08:03:50.131Z,17.10
2019-01-16T08:06:36.836Z,16.30
2019-01-16T08:12:26.901Z,28.95
2019-01-16T08:15:13.527Z,30.88
2019-01-16T08:18:00.142Z,20.25
2019-01-16T08:20:46.783Z,16.23
2019-01-16T08:23:33.405Z,16.20
2019-01-16T08:26:20.045Z,15.53
2019-01-16T08:29:06.665Z,15.18
2019-01-16T08:31:46.876Z,15.83
2019-01-16T08:34:33.530Z,15.18
2019-01-16T08:37:20.142Z,13.60
2019-01-16T08:40:06.766Z,12.80
2019-01-16T08:42:53.392Z,13.68
2019-01-16T08:45:40.042Z,14.00
2019-01-16T08:48:26.664Z,13.98
2019-01-16T08:51:13.308Z,15.45
2019-01-16T08:53:59.916Z,14.30
2019-01-16T08:56:46.562Z,12.60
2019-01-16T08:59:33.192Z,14.63
2019-01-16T09:02:19.807Z,15.65
2019-01-16T09:05:00.040Z,13.43
2019-01-16T09:07:46.680Z,12.20
2019-01-16T09:10:33.298Z,10.88
2019-01-16T09:13:19.954Z,10.18
2019-01-16T09:16:06.602Z,10.60
2019-01-16T09:18:46.864Z,9.25
2019-01-16T09:21:33.480Z,9.38
2019-01-16T09:24:20.112Z,8.23
2019-01-16T09:27:06.785Z,9.45
2019-01-16T09:30:01.066Z,9.50
2019-01-16T09:32:47.686Z,8.68
2019-01-16T09:35:34.349Z,9.20
2019-01-16T09:38:20.980Z,9.60
2019-01-16T09:41:07.625Z,9.30
2019-01-16T09:43:54.252Z,9.98
2019-01-16T09:46:39.137Z,9.40
2019-01-16T09:49:25.761Z,8.45
2019-01-16T09:52:12.428Z,10.03
2019-01-16T09:54:59.053Z,11.10
2019-01-16T09:57:45.707Z,11.80
2019-01-16T10:03:37.089Z,11.30
2019-01-16T10:06:23.856Z,11.10
2019-01-16T10:09:10.499Z,9.70
2019-01-16T10:11:57.111Z,11.55
2019-01-16T10:14:47.237Z,9.30
2019-01-16T10:17:33.881Z,9.30
2019-01-16T10:20:20.494Z,9.58
2019-01-16T10:22:58.972Z,9.48
2019-01-16T10:25:45.574Z,9.18
2019-01-16T10:28:32.207Z,8.35
2019-01-16T10:31:18.880Z,10.95
2019-01-16T10:34:05.536Z,9.68
2019-01-16T10:36:52.187Z,10.98
2019-01-16T10:39:38.803Z,8.58
2019-01-16T10:42:25.450Z,9.45
2019-01-16T10:45:12.060Z,8.88
2019-01-16T10:47:58.723Z,9.08
2019-01-16T10:50:45.382Z,9.95
2019-01-16T10:53:23.599Z,9.25
2019-01-16T10:56:10.219Z,9.48
2019-01-16T10:58:50.355Z,8.20
2019-01-16T11:01:37.005Z,9.00
2019-01-16T11:04:11.795Z,9.00
2019-01-16T11:06:58.395Z,8.50
2019-01-16T11:09:45.143Z,8.75
2019-01-16T11:12:31.770Z,7.33
2019-01-16T11:15:18.392Z,8.70
2019-01-16T11:18:07.610Z,8.40
2019-01-16T11:20:45.598Z,8.48
2019-01-16T11:23:32.248Z,9.90
2019-01-16T11:26:18.898Z,8.28
2019-01-16T11:29:04.333Z,8.78
2019-01-16T11:31:50.959Z,9.20
2019-01-16T11:34:37.598Z,8.20
2019-01-16T11:37:24.230Z,8.73
2019-01-16T11:40:10.957Z,8.08
2019-01-16T11:42:57.596Z,8.38
2019-01-16T11:45:44.232Z,7.65
2019-01-16T11:48:30.866Z,7.35
2019-01-16T11:51:18.858Z,8.38
2019-01-16T11:54:12.353Z,7.65
2019-01-16T11:56:58.983Z,7.78
2019-01-16T11:59:34.691Z,7.67
2019-01-16T12:02:21.325Z,8.10
2019-01-16T12:05:07.998Z,7.78
2019-01-16T12:07:46.525Z,7.22
2019-01-16T12:10:33.156Z,8.55
2019-01-16T12:13:19.775Z,6.25
2019-01-16T12:16:06.492Z,7.12
2019-01-16T12:18:51.149Z,7.08
2019-01-16T12:21:37.785Z,7.70
2019-01-16T12:24:24.421Z,9.30
2019-01-16T12:27:11.073Z,7.60
2019-01-16T12:29:57.713Z,6.83
2019-01-16T12:32:44.391Z,5.80
2019-01-16T12:35:31.027Z,6.47
2019-01-16T12:38:17.676Z,6.00
2019-01-16T12:40:57.109Z,6.60
2019-01-16T12:43:43.808Z,6.33
2019-01-16T12:46:30.464Z,4.85
2019-01-16T12:49:17.175Z,5.30
2019-01-16T12:52:03.823Z,4.80
2019-01-16T12:54:50.462Z,4.78
2019-01-16T12:57:37.107Z,5.12
2019-01-16T13:03:26.289Z,4.25
2019-01-16T13:06:12.959Z,4.83
2019-01-16T13:08:59.610Z,4.23
2019-01-16T13:11:46.239Z,4.90
2019-01-16T13:14:32.914Z,4.58
2019-01-16T13:17:19.572Z,4.85
2019-01-16T13:20:06.231Z,5.95
2019-01-16T13:22:52.879Z,4.85
2019-01-16T13:25:39.502Z,4.67
2019-01-16T13:28:26.196Z,4.90
2019-01-16T13:31:12.862Z,5.83
2019-01-16T13:33:59.490Z,5.10
2019-01-16T13:36:46.114Z,6.70
2019-01-16T13:39:32.754Z,5.50
2019-01-16T13:42:15.625Z,4.92
2019-01-16T13:45:02.298Z,5.42
2019-01-16T13:47:48.964Z,5.70
2019-01-16T13:50:35.620Z,4.50
2019-01-16T13:53:22.356Z,5.40
2019-01-16T13:56:08.989Z,5.72
2019-01-16T13:58:47.058Z,5.37
2019-01-16T14:01:33.729Z,6.60
2019-01-16T14:04:09.155Z,5.42
2019-01-16T14:06:55.813Z,6.47
2019-01-16T14:09:42.452Z,5.70
2019-01-16T14:12:29.122Z,6.10
2019-01-16T14:15:15.769Z,6.87
2019-01-16T14:18:02.415Z,6.67
2019-01-16T14:20:49.062Z,6.05
2019-01-16T14:23:35.741Z,5.40
2019-01-16T14:26:22.390Z,5.87
2019-01-16T14:29:11.888Z,6.28
2019-01-16T14:32:04.491Z,6.65
2019-01-16T14:34:51.142Z,6.30
2019-01-16T14:37:37.799Z,5.35
2019-01-16T14:40:25.625Z,5.92
2019-01-16T14:43:04.979Z,5.50
2019-01-16T14:45:51.628Z,6.45
2019-01-16T14:48:38.303Z,6.05
2019-01-16T14:54:26.117Z,6.90
2019-01-16T14:57:12.766Z,6.95
2019-01-16T14:59:59.415Z,11.60
2019-01-16T15:02:46.118Z,5.83
2019-01-16T15:05:32.892Z,8.83
2019-01-16T15:08:19.596Z,7.60
2019-01-16T15:11:06.232Z,7.17
2019-01-16T15:13:52.900Z,7.75
2019-01-16T15:16:39.638Z,7.40
2019-01-16T15:19:26.274Z,7.00
2019-01-16T15:22:12.939Z,5.85
2019-01-16T15:24:59.593Z,7.95
2019-01-16T15:27:46.229Z,9.78
2019-01-16T15:33:34.660Z,9.13
2019-01-16T15:36:21.585Z,8.73
2019-01-16T15:39:08.391Z,10.55
2019-01-16T15:41:55.024Z,9.25
2019-01-16T15:44:41.676Z,8.60
2019-01-16T15:47:28.328Z,7.05
2019-01-16T15:50:14.973Z,7.12
2019-01-16T15:53:01.656Z,6.85
2019-01-16T15:55:48.296Z,8.15
2019-01-16T15:58:34.968Z,7.47
2019-01-16T16:01:21.638Z,7.47
2019-01-16T16:04:08.329Z,9.05
2019-01-16T16:06:55.018Z,8.28
2019-01-16T16:09:41.687Z,8.38
2019-01-16T16:12:28.314Z,8.33
2019-01-16T16:15:14.987Z,7.53
2019-01-16T16:18:01.652Z,6.83
2019-01-16T16:20:48.784Z,7.42
2019-01-16T16:23:35.465Z,8.68
2019-01-16T16:26:22.127Z,11.20
2019-01-16T16:29:08.803Z,9.53
2019-01-16T16:31:55.488Z,8.58
2019-01-16T16:34:42.155Z,7.60
2019-01-16T16:37:29.444Z,8.68
2019-01-16T16:40:16.197Z,8.60
2019-01-16T16:42:53.584Z,6.37
2019-01-16T16:45:40.561Z,6.33
2019-01-16T16:48:27.297Z,8.70
2019-01-16T16:51:14.650Z,10.95
2019-01-16T16:54:01.661Z,18.32
2019-01-16T16:56:48.442Z,13.45
2019-01-16T16:59:35.384Z,11.12
2019-01-16T17:02:22.542Z,10.78
2019-01-16T17:05:09.390Z,9.98
2019-01-16T17:07:44.699Z,11.85
2019-01-16T17:10:31.466Z,10.55
2019-01-16T17:13:18.189Z,11.78
2019-01-16T17:16:05.133Z,12.28
2019-01-16T17:19:11.366Z,13.60
2019-01-16T17:21:50.137Z,21.55
2019-01-16T17:24:36.863Z,19.65
2019-01-16T17:27:13.428Z,19.40
2019-01-16T17:30:00.227Z,20.68
2019-01-16T17:32:46.989Z,19.37
2019-01-16T17:35:33.974Z,25.25
2019-01-16T17:38:20.728Z,19.67
2019-01-16T17:41:07.427Z,22.05
2019-01-16T17:43:54.530Z,22.40
2019-01-16T17:46:41.269Z,22.90
2019-01-16T17:49:28.612Z,22.52
2019-01-16T17:52:15.411Z,22.85
2019-01-16T17:55:02.712Z,23.35
2019-01-16T17:57:50.120Z,24.57
2019-01-16T18:00:36.905Z,23.02
2019-01-16T18:03:24.270Z,26.48
2019-01-16T18:06:11.058Z,22.95
2019-01-16T18:08:57.799Z,23.18
2019-01-16T18:11:44.964Z,19.52
2019-01-16T18:14:32.031Z,19.10
2019-01-16T18:17:19.251Z,21.50
2019-01-16T18:20:06.912Z,20.62
2019-01-16T18:25:54.716Z,19.65
2019-01-16T18:29:04.102Z,19.37
2019-01-16T18:31:49.826Z,23.90
2019-01-16T18:34:37.207Z,23.07
2019-01-16T18:37:39.725Z,21.82
2019-01-16T18:40:31.744Z,19.50
2019-01-16T18:43:24.664Z,17.02
2019-01-16T18:46:14.269Z,23.05
2019-01-16T18:49:07.309Z,24.55
2019-01-16T18:52:03.625Z,22.65
2019-01-16T18:54:42.045Z,26.55
2019-01-16T18:57:38.380Z,24.15
2019-01-16T19:00:31.780Z,23.18
2019-01-16T19:03:34.021Z,19.80
2019-01-16T19:06:23.322Z,18.98
2019-01-16T19:09:16.044Z,19.42
2019-01-16T19:12:13.562Z,19.77
2019-01-16T19:15:05.742Z,18.62
2019-01-16T19:17:52.567Z,16.95
2019-01-16T19:20:34.467Z,16.85
2019-01-16T19:23:22.038Z,19.70
2019-01-16T19:26:08.192Z,15.32
2019-01-16T19:28:57.976Z,14.63
2019-01-16T19:31:51.278Z,13.13
2019-01-16T19:34:34.532Z,11.75
2019-01-16T19:37:20.642Z,13.78
2019-01-16T19:40:25.387Z,13.72
2019-01-16T19:43:12.112Z,13.50
2019-01-16T19:46:11.630Z,14.20
2019-01-16T19:49:01.901Z,13.93
2019-01-16T19:51:39.691Z,12.73
2019-01-16T19:54:27.767Z,13.13
2019-01-16T19:57:31.290Z,13.20
2019-01-16T20:00:22.406Z,14.53
2019-01-16T20:03:10.917Z,15.55
2019-01-16T20:05:57.100Z,15.20
2019-01-16T20:08:47.176Z,15.28
2019-01-16T20:11:40.354Z,16.05
2019-01-16T20:14:31.933Z,14.83
2019-01-16T20:17:27.466Z,14.73
2019-01-16T20:20:20.686Z,16.00
2019-01-16T20:23:17.482Z,15.38
2019-01-16T20:26:15.665Z,17.50
2019-01-16T20:29:02.258Z,17.80
2019-01-16T20:31:49.726Z,17.70
2019-01-16T20:34:42.032Z,17.05
2019-01-16T20:37:44.041Z,14.63
2019-01-16T20:40:34.487Z,13.45
2019-01-16T20:43:26.804Z,13.18
2019-01-16T20:46:19.908Z,13.22
2019-01-16T20:49:27.427Z,12.35
2019-01-16T20:52:13.054Z,14.90
2019-01-16T20:54:49.313Z,13.62
2019-01-16T20:57:50.683Z,14.10
2019-01-16T21:00:37.760Z,12.80
2019-01-16T21:03:37.507Z,14.03
2019-01-16T21:06:23.729Z,14.13
2019-01-16T21:09:16.523Z,15.32
2019-01-16T21:12:06.730Z,20.10
2019-01-16T21:15:00.775Z,19.00
2019-01-16T21:17:50.146Z,15.88
2019-01-16T21:20:27.573Z,14.75
2019-01-16T21:23:13.483Z,12.45
2019-01-16T21:25:53.575Z,13.93
2019-01-16T21:28:40.895Z,14.18
2019-01-16T21:31:30.929Z,14.05
2019-01-16T21:34:25.725Z,13.75
2019-01-16T21:37:11.404Z,12.45
2019-01-16T21:39:57.097Z,12.73
2019-01-16T21:42:56.127Z,12.15
2019-01-16T21:45:41.563Z,11.15
2019-01-16T21:48:19.308Z,9.83
2019-01-16T21:51:04.925Z,9.73
2019-01-16T21:53:54.175Z,10.75
2019-01-16T21:56:46.845Z,12.00
2019-01-16T21:59:31.834Z,12.33
2019-01-16T22:02:08.513Z,11.48
2019-01-16T22:04:58.225Z,11.28
2019-01-16T22:07:47.724Z,10.20
2019-01-16T22:10:37.687Z,10.90
2019-01-16T22:13:18.283Z,10.20
2019-01-16T22:16:02.585Z,10.75
2019-01-16T22:18:49.283Z,9.75
2019-01-16T22:21:45.064Z,8.68
2019-01-16T22:24:34.879Z,10.30
2019-01-16T22:27:24.528Z,9.63
2019-01-16T22:30:26.253Z,8.70
2019-01-16T22:33:08.938Z,9.10
2019-01-16T22:35:50.351Z,8.30
2019-01-16T22:38:33.031Z,8.90
2019-01-16T22:41:22.930Z,6.97
2019-01-16T22:43:57.630Z,7.08
2019-01-16T22:46:59.387Z,7.83
2019-01-16T22:49:45.748Z,6.80
2019-01-16T22:52:27.538Z,6.95
2019-01-16T22:55:32.322Z,5.92
2019-01-16T22:58:27.520Z,8.10
2019-01-16T23:01:14.686Z,7.25
2019-01-16T23:04:16.356Z,7.25
2019-01-16T23:06:50.088Z,7.30
2019-01-16T23:09:42.471Z,6.20
2019-01-16T23:12:27.704Z,8.40
2019-01-16T23:15:12.473Z,8.10
2019-01-16T23:17:53.490Z,8.28
2019-01-16T23:20:38.601Z,7.83
2019-01-16T23:23:15.123Z,6.87
2019-01-16T23:26:00.376Z,8.58
2019-01-16T23:28:45.671Z,7.30
2019-01-16T23:31:38.522Z,7.03
2019-01-16T23:34:31.225Z,8.50
2019-01-16T23:37:16.611Z,7.62
2019-01-16T23:40:05.832Z,6.80
2019-01-16T23:43:01.565Z,6.67
2019-01-16T23:45:42.342Z,7.20
2019-01-16T23:48:28.999Z,6.85
2019-01-16T23:51:15.777Z,7.70
2019-01-16T23:54:05.243Z,8.83
2019-01-16T23:56:47.322Z,7.92
2019-01-16T23:59:32.182Z,7.03
